createdAt,value
2018-05-21T00:00:30.913Z,8.60
2018-05-21T00:02:57.511Z,9.20
2018-05-21T00:05:24.090Z,8.00
2018-05-21T00:07:50.661Z,8.70
2018-05-21T00:10:17.224Z,7.97
2018-05-21T00:12:43.795Z,7.50
2018-05-21T00:15:10.373Z,7.43
2018-05-21T00:17:36.938Z,7.77
2018-05-21T00:20:03.519Z,8.00
2018-05-21T00:22:30.093Z,7.80
2018-05-21T00:24:56.674Z,7.30
2018-05-21T00:27:23.245Z,6.90
2018-05-21T00:29:49.833Z,7.20
2018-05-21T00:32:16.553Z,6.90
2018-05-21T00:34:43.107Z,7.50
2018-05-21T00:37:09.673Z,7.23
2018-05-21T00:39:36.241Z,7.13
2018-05-21T00:42:02.821Z,7.20
2018-05-21T00:44:29.407Z,7.80
2018-05-21T00:46:56.002Z,6.87
2018-05-21T00:49:22.635Z,7.20
2018-05-21T00:51:49.230Z,7.00
2018-05-21T00:54:15.816Z,7.53
2018-05-21T00:56:42.377Z,7.10
2018-05-21T00:59:08.939Z,6.80
2018-05-21T01:01:35.534Z,6.43
2018-05-21T01:04:02.105Z,6.30
2018-05-21T01:06:28.776Z,6.60
2018-05-21T01:08:55.330Z,7.30
2018-05-21T01:11:21.902Z,7.40
2018-05-21T01:13:48.513Z,7.30
2018-05-21T01:16:15.096Z,7.60
2018-05-21T01:18:41.657Z,8.33
2018-05-21T01:21:08.245Z,7.80
2018-05-21T01:23:34.922Z,7.80
2018-05-21T01:26:01.525Z,7.20
2018-05-21T01:28:28.078Z,7.00
2018-05-21T01:30:54.645Z,6.93
2018-05-21T01:33:21.265Z,7.77
2018-05-21T01:35:47.830Z,6.97
2018-05-21T01:38:14.422Z,7.00
2018-05-21T01:40:41.015Z,7.90
2018-05-21T01:43:07.577Z,6.40
2018-05-21T01:45:34.173Z,7.30
2018-05-21T01:48:00.741Z,7.10
2018-05-21T01:50:27.310Z,7.00
2018-05-21T01:52:53.894Z,6.77
2018-05-21T01:55:20.478Z,6.70
2018-05-21T01:57:47.053Z,6.90
2018-05-21T02:00:13.634Z,6.67
2018-05-21T02:02:40.220Z,6.63
2018-05-21T02:05:06.805Z,6.80
2018-05-21T02:07:33.400Z,6.23
2018-05-21T02:09:59.986Z,5.77
2018-05-21T02:12:26.557Z,5.60
2018-05-21T02:14:53.132Z,5.60
2018-05-21T02:17:19.722Z,6.00
2018-05-21T02:19:46.319Z,5.10
2018-05-21T02:22:12.895Z,4.93
2018-05-21T02:24:39.465Z,5.00
2018-05-21T02:27:06.080Z,4.80
2018-05-21T02:29:32.612Z,4.40
2018-05-21T02:31:59.185Z,4.93
2018-05-21T02:34:25.813Z,4.47
2018-05-21T02:36:52.398Z,4.70
2018-05-21T02:39:18.990Z,4.30
2018-05-21T02:41:45.559Z,4.17
2018-05-21T02:44:12.128Z,4.03
2018-05-21T02:46:38.734Z,4.40
2018-05-21T02:49:05.281Z,4.13
2018-05-21T02:51:31.873Z,4.60
2018-05-21T02:53:58.477Z,4.30
2018-05-21T02:56:25.050Z,4.43
2018-05-21T02:58:51.622Z,4.40
2018-05-21T03:01:18.204Z,4.20
2018-05-21T03:03:44.789Z,4.47
2018-05-21T03:06:11.354Z,4.40
2018-05-21T03:08:37.925Z,4.30
2018-05-21T03:11:04.498Z,4.17
2018-05-21T03:13:31.057Z,4.13
2018-05-21T03:15:57.641Z,4.60
2018-05-21T03:18:24.209Z,4.10
2018-05-21T03:20:50.826Z,3.90
2018-05-21T03:23:17.390Z,4.50
2018-05-21T03:25:43.978Z,4.13
2018-05-21T03:28:10.569Z,3.87
2018-05-21T03:30:37.143Z,4.00
2018-05-21T03:33:03.713Z,4.30
2018-05-21T03:35:30.285Z,4.17
2018-05-21T03:37:56.940Z,4.30
2018-05-21T03:40:23.441Z,4.07
2018-05-21T03:42:50.009Z,4.50
2018-05-21T03:45:16.597Z,3.77
2018-05-21T03:47:43.162Z,3.43
2018-05-21T03:50:09.747Z,3.77
2018-05-21T03:52:36.314Z,4.00
2018-05-21T03:55:02.887Z,3.30
2018-05-21T03:57:29.473Z,3.47
2018-05-21T04:00:01.805Z,3.50
2018-05-21T04:02:34.210Z,3.40
2018-05-21T04:05:00.783Z,4.10
2018-05-21T04:07:27.372Z,3.33
2018-05-21T04:09:54.115Z,3.80
2018-05-21T04:12:20.662Z,3.77
2018-05-21T04:14:47.236Z,3.50
2018-05-21T04:17:13.825Z,3.40
2018-05-21T04:19:40.405Z,3.10
2018-05-21T04:22:06.982Z,3.50
2018-05-21T04:24:33.549Z,3.50
2018-05-21T04:27:00.121Z,3.20
2018-05-21T04:29:26.705Z,2.90
2018-05-21T04:31:53.269Z,2.60
2018-05-21T04:34:19.844Z,2.80
2018-05-21T04:36:46.454Z,2.87
2018-05-21T04:39:13.013Z,2.80
2018-05-21T04:41:39.577Z,2.70
2018-05-21T04:44:06.233Z,2.80
2018-05-21T04:46:32.802Z,3.20
2018-05-21T04:48:59.384Z,2.70
2018-05-21T04:51:25.955Z,3.27
2018-05-21T04:53:52.529Z,2.80
2018-05-21T04:56:19.113Z,3.40
2018-05-21T04:58:45.679Z,3.47
2018-05-21T05:01:12.257Z,3.07
2018-05-21T05:03:38.829Z,3.10
2018-05-21T05:06:05.405Z,3.20
2018-05-21T05:08:31.978Z,2.90
2018-05-21T05:10:58.561Z,3.10
2018-05-21T05:13:25.133Z,3.23
2018-05-21T05:15:51.710Z,3.27
2018-05-21T05:18:18.277Z,3.20
2018-05-21T05:20:44.842Z,3.30
2018-05-21T05:23:11.417Z,3.20
2018-05-21T05:25:37.998Z,3.30
2018-05-21T05:28:04.569Z,3.20
2018-05-21T05:30:31.161Z,3.30
2018-05-21T05:32:57.711Z,3.30
2018-05-21T05:35:24.285Z,3.67
2018-05-21T05:37:50.873Z,3.50
2018-05-21T05:40:17.438Z,3.27
2018-05-21T05:42:44.006Z,3.27
2018-05-21T05:45:10.579Z,3.40
2018-05-21T05:47:37.158Z,3.53
2018-05-21T05:50:03.721Z,3.40
2018-05-21T05:52:30.285Z,3.70
2018-05-21T05:54:56.857Z,4.27
2018-05-21T05:57:23.432Z,3.73
2018-05-21T05:59:50.001Z,3.80
2018-05-21T06:02:16.575Z,3.30
2018-05-21T06:04:43.137Z,3.20
2018-05-21T06:07:09.721Z,3.60
2018-05-21T06:09:36.291Z,3.57
2018-05-21T06:12:03.168Z,3.97
2018-05-21T06:14:29.741Z,3.97
2018-05-21T06:16:56.305Z,3.87
2018-05-21T06:19:22.872Z,4.20
2018-05-21T06:21:49.445Z,3.70
2018-05-21T06:24:16.017Z,4.03
2018-05-21T06:26:42.595Z,3.70
2018-05-21T06:29:09.165Z,4.30
2018-05-21T06:31:35.741Z,4.30
2018-05-21T06:34:02.789Z,3.90
2018-05-21T06:36:29.308Z,4.10
2018-05-21T06:38:55.907Z,4.17
2018-05-21T06:41:22.509Z,4.23
2018-05-21T06:43:49.077Z,3.90
2018-05-21T06:46:15.659Z,4.43
2018-05-21T06:48:42.233Z,3.90
2018-05-21T06:51:08.812Z,4.17
2018-05-21T06:53:35.385Z,4.23
2018-05-21T06:56:01.965Z,4.80
2018-05-21T06:58:28.589Z,4.50
2018-05-21T07:00:55.153Z,4.57
2018-05-21T07:03:21.732Z,3.90
2018-05-21T07:05:48.292Z,3.83
2018-05-21T07:08:14.882Z,4.63
2018-05-21T07:10:41.441Z,4.33
2018-05-21T07:13:08.023Z,4.13
2018-05-21T07:15:34.582Z,4.50
2018-05-21T07:18:01.159Z,4.10
2018-05-21T07:20:27.737Z,4.00
2018-05-21T07:22:54.317Z,4.47
2018-05-21T07:25:20.887Z,4.90
2018-05-21T07:27:47.445Z,4.53
2018-05-21T07:30:14.037Z,4.70
2018-05-21T07:32:40.667Z,4.67
2018-05-21T07:35:07.228Z,4.43
2018-05-21T07:37:33.765Z,4.80
2018-05-21T07:40:00.354Z,5.00
2018-05-21T07:42:26.913Z,5.10
2018-05-21T07:44:53.509Z,4.50
2018-05-21T07:47:20.057Z,4.40
2018-05-21T07:49:46.633Z,5.03
2018-05-21T07:52:13.270Z,4.57
2018-05-21T07:54:39.821Z,5.80
2018-05-21T07:57:06.441Z,4.50
2018-05-21T07:59:33.014Z,5.33
2018-05-21T08:01:59.585Z,5.13
2018-05-21T08:04:26.154Z,5.30
2018-05-21T08:06:52.731Z,4.93
2018-05-21T08:09:19.370Z,4.63
2018-05-21T08:11:45.946Z,4.77
2018-05-21T08:14:12.517Z,5.20
2018-05-21T08:16:39.097Z,4.93
2018-05-21T08:19:05.668Z,4.50
2018-05-21T08:21:32.244Z,5.17
2018-05-21T08:23:58.821Z,5.00
2018-05-21T08:26:25.385Z,5.27
2018-05-21T08:28:51.961Z,4.90
2018-05-21T08:31:18.541Z,5.50
2018-05-21T08:33:45.124Z,4.80
2018-05-21T08:36:11.752Z,5.10
2018-05-21T08:38:38.310Z,4.60
2018-05-21T08:41:04.881Z,5.13
2018-05-21T08:43:31.449Z,4.97
2018-05-21T08:45:58.025Z,4.93
2018-05-21T08:48:24.643Z,5.20
2018-05-21T08:50:51.190Z,5.33
2018-05-21T08:53:17.758Z,5.07
2018-05-21T08:55:44.333Z,5.00
2018-05-21T08:58:10.906Z,5.10
2018-05-21T09:00:37.476Z,4.80
2018-05-21T09:03:04.115Z,5.00
2018-05-21T09:05:30.697Z,5.53
2018-05-21T09:07:57.270Z,4.90
2018-05-21T09:10:23.870Z,5.63
2018-05-21T09:12:50.452Z,5.13
2018-05-21T09:15:17.018Z,5.17
2018-05-21T09:17:43.603Z,5.57
2018-05-21T09:20:10.174Z,4.90
2018-05-21T09:22:36.850Z,5.50
2018-05-21T09:25:03.339Z,5.00
2018-05-21T09:27:29.933Z,5.63
2018-05-21T09:29:56.504Z,5.03
2018-05-21T09:32:23.161Z,5.37
2018-05-21T09:34:49.649Z,5.30
2018-05-21T09:37:16.229Z,5.10
2018-05-21T09:39:42.793Z,5.00
2018-05-21T09:42:09.453Z,5.37
2018-05-21T09:44:35.957Z,4.93
2018-05-21T09:47:02.521Z,5.10
2018-05-21T09:49:29.105Z,5.57
2018-05-21T09:51:55.668Z,5.13
2018-05-21T09:54:22.256Z,5.50
2018-05-21T09:56:48.826Z,4.90
2018-05-21T09:59:15.398Z,5.50
2018-05-21T10:01:41.991Z,5.30
2018-05-21T10:04:08.557Z,5.37
2018-05-21T10:06:35.131Z,4.77
2018-05-21T10:09:01.711Z,5.23
2018-05-21T10:11:28.341Z,5.20
2018-05-21T10:13:54.981Z,5.50
2018-05-21T10:16:21.525Z,4.73
2018-05-21T10:18:48.117Z,5.17
2018-05-21T10:21:14.693Z,5.30
2018-05-21T10:23:41.290Z,4.87
2018-05-21T10:26:07.959Z,4.67
2018-05-21T10:28:34.437Z,5.00
2018-05-21T10:31:01.025Z,5.00
2018-05-21T10:33:27.700Z,4.90
2018-05-21T10:35:54.248Z,4.67
2018-05-21T10:38:20.821Z,5.10
2018-05-21T10:40:47.404Z,4.77
2018-05-21T10:43:13.975Z,4.63
2018-05-21T10:45:40.548Z,4.53
2018-05-21T10:48:07.123Z,4.13
2018-05-21T10:50:33.697Z,4.53
2018-05-21T10:53:00.359Z,4.30
2018-05-21T10:55:27.258Z,4.90
2018-05-21T10:57:53.827Z,4.70
2018-05-21T11:00:20.411Z,4.23
2018-05-21T11:02:46.983Z,3.87
2018-05-21T11:05:13.555Z,4.70
2018-05-21T11:07:40.127Z,4.40
2018-05-21T11:10:06.759Z,4.27
2018-05-21T11:12:33.337Z,4.50
2018-05-21T11:14:59.901Z,4.60
2018-05-21T11:17:26.474Z,5.10
2018-05-21T11:19:53.038Z,4.50
2018-05-21T11:22:19.618Z,4.97
2018-05-21T11:24:46.281Z,4.90
2018-05-21T11:27:12.849Z,4.83
2018-05-21T11:29:39.425Z,4.30
2018-05-21T11:32:05.985Z,4.40
2018-05-21T11:34:32.569Z,3.80
2018-05-21T11:36:59.143Z,4.57
2018-05-21T11:39:26.045Z,4.00
2018-05-21T11:41:52.637Z,3.87
2018-05-21T11:44:19.213Z,5.10
2018-05-21T11:46:45.885Z,4.70
2018-05-21T11:49:12.437Z,4.30
2018-05-21T11:51:39.005Z,4.20
2018-05-21T11:54:05.577Z,4.30
2018-05-21T11:56:32.169Z,4.10
2018-05-21T11:58:58.775Z,3.83
2018-05-21T12:01:25.357Z,4.07
2018-05-21T12:03:51.967Z,3.90
2018-05-21T12:06:18.498Z,4.00
2018-05-21T12:08:45.078Z,4.30
2018-05-21T12:11:11.651Z,4.00
2018-05-21T12:13:38.250Z,3.83
2018-05-21T12:16:04.797Z,4.47
2018-05-21T12:18:31.378Z,4.17
2018-05-21T12:20:57.945Z,3.97
2018-05-21T12:23:24.549Z,3.80
2018-05-21T12:25:51.096Z,3.63
2018-05-21T12:28:17.702Z,4.37
2018-05-21T12:30:44.263Z,3.87
2018-05-21T12:33:11.514Z,3.90
2018-05-21T12:35:38.092Z,4.10
2018-05-21T12:38:04.661Z,4.10
2018-05-21T12:40:31.237Z,4.27
2018-05-21T12:42:57.809Z,3.93
2018-05-21T12:45:24.388Z,4.20
2018-05-21T12:47:50.949Z,3.80
2018-05-21T12:50:17.573Z,4.03
2018-05-21T12:52:44.156Z,4.07
2018-05-21T12:55:10.752Z,4.00
2018-05-21T12:57:37.330Z,3.97
2018-05-21T13:00:03.929Z,3.83
2018-05-21T13:02:30.495Z,4.43
2018-05-21T13:04:57.083Z,4.20
2018-05-21T13:07:23.646Z,4.40
2018-05-21T13:09:50.224Z,4.33
2018-05-21T13:12:16.816Z,4.10
2018-05-21T13:14:43.376Z,3.90
2018-05-21T13:17:09.957Z,4.40
2018-05-21T13:19:36.517Z,3.73
2018-05-21T13:22:03.103Z,4.20
2018-05-21T13:24:29.693Z,3.90
2018-05-21T13:26:56.269Z,4.47
2018-05-21T13:29:22.853Z,4.40
2018-05-21T13:31:49.430Z,4.50
2018-05-21T13:34:16.011Z,4.30
2018-05-21T13:36:42.577Z,4.20
2018-05-21T13:39:09.193Z,4.50
2018-05-21T13:41:35.781Z,4.13
2018-05-21T13:44:02.353Z,4.17
2018-05-21T13:46:28.929Z,4.13
2018-05-21T13:48:55.513Z,4.33
2018-05-21T13:51:22.098Z,4.30
2018-05-21T13:53:48.673Z,4.07
2018-05-21T13:56:15.253Z,4.43
2018-05-21T13:58:41.826Z,4.20
2018-05-21T14:01:08.429Z,4.43
2018-05-21T14:03:35.002Z,4.13
2018-05-21T14:06:01.581Z,4.40
2018-05-21T14:08:28.219Z,4.40
2018-05-21T14:10:54.801Z,4.40
2018-05-21T14:13:21.374Z,4.90
2018-05-21T14:15:47.944Z,4.13
2018-05-21T14:18:14.527Z,4.13
2018-05-21T14:20:41.097Z,4.23
2018-05-21T14:23:07.657Z,4.50
2018-05-21T14:25:34.269Z,4.43
2018-05-21T14:28:00.870Z,4.43
2018-05-21T14:30:27.439Z,4.40
2018-05-21T14:32:54.013Z,4.30
2018-05-21T14:35:20.587Z,4.10
2018-05-21T14:37:47.190Z,4.33
2018-05-21T14:40:13.769Z,5.07
2018-05-21T14:42:40.638Z,4.07
2018-05-21T14:45:07.226Z,4.07
2018-05-21T14:47:33.793Z,4.43
2018-05-21T14:50:00.367Z,4.27
2018-05-21T14:52:26.934Z,4.07
2018-05-21T14:54:53.603Z,4.20
2018-05-21T14:57:20.119Z,4.13
2018-05-21T14:59:46.677Z,4.27
2018-05-21T15:02:13.262Z,4.10
2018-05-21T15:04:40.211Z,3.87
2018-05-21T15:07:06.777Z,4.20
2018-05-21T15:09:33.349Z,3.90
2018-05-21T15:11:59.921Z,4.10
2018-05-21T15:14:26.500Z,4.73
2018-05-21T15:16:53.073Z,4.10
2018-05-21T15:19:19.641Z,4.13
2018-05-21T15:21:46.216Z,4.10
2018-05-21T15:24:12.793Z,4.30
2018-05-21T15:26:39.389Z,4.30
2018-05-21T15:29:05.978Z,4.20
2018-05-21T15:31:32.605Z,3.70
2018-05-21T15:33:59.181Z,4.23
2018-05-21T15:36:25.741Z,4.07
2018-05-21T15:38:52.322Z,4.37
2018-05-21T15:41:18.902Z,3.97
2018-05-21T15:43:45.478Z,4.23
2018-05-21T15:46:12.051Z,4.27
2018-05-21T15:48:38.963Z,4.17
2018-05-21T15:51:05.466Z,3.93
2018-05-21T15:53:32.036Z,4.37
2018-05-21T15:55:58.606Z,4.17
2018-05-21T15:58:26.792Z,3.93
2018-05-21T16:00:53.369Z,4.20
2018-05-21T16:03:20.283Z,3.90
2018-05-21T16:05:46.869Z,4.03
2018-05-21T16:08:13.445Z,4.43
2018-05-21T16:10:40.049Z,4.27
2018-05-21T16:13:06.625Z,3.67
2018-05-21T16:15:33.198Z,3.70
2018-05-21T16:17:59.782Z,4.00
2018-05-21T16:20:26.353Z,3.90
2018-05-21T16:22:52.921Z,3.83
2018-05-21T16:25:20.265Z,3.90
2018-05-21T16:27:46.845Z,3.73
2018-05-21T16:30:13.804Z,4.00
2018-05-21T16:32:40.322Z,3.97
2018-05-21T16:35:06.961Z,3.80
2018-05-21T16:37:33.546Z,3.70
2018-05-21T16:40:00.257Z,4.20
2018-05-21T16:42:26.846Z,4.03
2018-05-21T16:44:53.433Z,3.90
2018-05-21T16:47:20.025Z,3.93
2018-05-21T16:49:46.610Z,4.03
2018-05-21T16:52:13.215Z,4.10
2018-05-21T16:54:39.796Z,4.10
2018-05-21T16:57:06.382Z,3.90
2018-05-21T16:59:32.952Z,3.77
2018-05-21T17:01:59.522Z,4.20
2018-05-21T17:04:26.093Z,4.87
2018-05-21T17:06:52.750Z,4.20
2018-05-21T17:09:19.244Z,5.13
2018-05-21T17:11:45.826Z,6.30
2018-05-21T17:14:12.397Z,4.77
2018-05-21T17:16:38.969Z,4.20
2018-05-21T17:19:05.551Z,3.70
2018-05-21T17:21:32.187Z,3.70
2018-05-21T17:23:58.749Z,4.07
2018-05-21T17:26:25.329Z,4.00
2018-05-21T17:28:51.920Z,4.30
2018-05-21T17:31:18.481Z,3.93
2018-05-21T17:33:45.349Z,4.13
2018-05-21T17:36:11.916Z,4.20
2018-05-21T17:38:38.489Z,4.10
2018-05-21T17:41:05.093Z,4.40
2018-05-21T17:43:31.801Z,4.10
2018-05-21T17:45:58.379Z,4.97
2018-05-21T17:48:25.129Z,4.30
2018-05-21T17:50:51.697Z,4.17
2018-05-21T17:53:18.265Z,4.73
2018-05-21T17:55:44.864Z,4.70
2018-05-21T17:58:11.429Z,4.63
2018-05-21T18:00:38.000Z,4.77
2018-05-21T18:03:04.685Z,5.13
2018-05-21T18:05:32.064Z,4.37
2018-05-21T18:07:58.674Z,4.47
2018-05-21T18:10:25.249Z,4.43
2018-05-21T18:12:51.821Z,4.37
2018-05-21T18:15:18.397Z,4.30
2018-05-21T18:17:44.993Z,4.13
2018-05-21T18:20:11.569Z,4.37
2018-05-21T18:22:38.171Z,4.43
2018-05-21T18:25:04.729Z,4.80
2018-05-21T18:27:31.325Z,4.90
2018-05-21T18:29:57.904Z,5.50
2018-05-21T18:32:24.550Z,4.90
2018-05-21T18:34:51.198Z,4.60
2018-05-21T18:37:17.780Z,4.23
2018-05-21T18:39:44.336Z,4.10
2018-05-21T18:42:11.036Z,4.60
2018-05-21T18:44:37.533Z,5.07
2018-05-21T18:47:04.107Z,4.87
2018-05-21T18:49:30.684Z,4.20
2018-05-21T18:51:57.281Z,4.80
2018-05-21T18:54:23.934Z,4.43
2018-05-21T18:56:50.535Z,5.00
2018-05-21T18:59:17.130Z,4.90
2018-05-21T19:01:43.709Z,4.40
2018-05-21T19:04:10.279Z,4.70
2018-05-21T19:06:36.861Z,5.00
2018-05-21T19:09:05.264Z,4.90
2018-05-21T19:11:31.845Z,4.07
2018-05-21T19:13:58.437Z,4.70
2018-05-21T19:16:25.017Z,4.70
2018-05-21T19:18:51.589Z,4.30
2018-05-21T19:21:18.161Z,4.60
2018-05-21T19:23:44.730Z,3.97
2018-05-21T19:26:11.313Z,4.40
2018-05-21T19:28:37.873Z,4.50
2018-05-21T19:31:04.497Z,4.60
2018-05-21T19:33:31.097Z,4.50
2018-05-21T19:35:57.645Z,4.67
2018-05-21T19:38:24.225Z,4.67
2018-05-21T19:40:50.789Z,4.60
2018-05-21T19:43:17.407Z,4.20
2018-05-21T19:45:43.980Z,4.83
2018-05-21T19:48:10.534Z,4.40
2018-05-21T19:50:37.253Z,4.07
2018-05-21T19:53:03.797Z,4.70
2018-05-21T19:55:30.373Z,4.37
2018-05-21T19:57:56.941Z,4.40
2018-05-21T20:00:23.530Z,4.03
2018-05-21T20:02:50.129Z,4.03
2018-05-21T20:05:16.769Z,4.50
2018-05-21T20:07:43.328Z,4.43
2018-05-21T20:10:09.911Z,4.60
2018-05-21T20:12:36.509Z,4.23
2018-05-21T20:15:03.078Z,3.90
2018-05-21T20:17:29.653Z,4.53
2018-05-21T20:19:56.324Z,4.27
2018-05-21T20:22:22.934Z,4.33
2018-05-21T20:24:49.503Z,4.07
2018-05-21T20:27:16.073Z,4.53
2018-05-21T20:29:42.694Z,4.70
2018-05-21T20:32:09.269Z,4.60
2018-05-21T20:34:35.845Z,4.60
2018-05-21T20:37:02.441Z,4.23
2018-05-21T20:39:28.985Z,4.30
2018-05-21T20:41:55.584Z,4.53
2018-05-21T20:44:22.149Z,4.30
2018-05-21T20:46:48.726Z,4.87
2018-05-21T20:49:15.310Z,4.57
2018-05-21T20:51:41.917Z,3.90
2018-05-21T20:54:08.543Z,4.37
2018-05-21T20:56:35.113Z,4.50
2018-05-21T20:59:01.664Z,4.30
2018-05-21T21:01:28.237Z,4.30
2018-05-21T21:03:54.833Z,4.23
2018-05-21T21:06:21.401Z,4.30
2018-05-21T21:08:48.001Z,4.53
2018-05-21T21:11:14.581Z,4.40
2018-05-21T21:13:41.149Z,4.03
2018-05-21T21:16:07.725Z,4.20
2018-05-21T21:18:34.293Z,4.13
2018-05-21T21:21:00.916Z,4.40
2018-05-21T21:23:27.498Z,4.20
2018-05-21T21:25:54.122Z,4.23
2018-05-21T21:28:20.747Z,4.47
2018-05-21T21:30:47.300Z,4.00
2018-05-21T21:33:13.881Z,4.17
2018-05-21T21:35:40.452Z,4.10
2018-05-21T21:38:07.018Z,4.63
2018-05-21T21:40:33.598Z,4.10
2018-05-21T21:43:00.178Z,4.13
2018-05-21T21:45:26.750Z,4.40
2018-05-21T21:47:53.332Z,4.00
2018-05-21T21:50:19.911Z,4.43
2018-05-21T21:52:46.492Z,4.50
2018-05-21T21:55:13.056Z,3.87
2018-05-21T21:57:39.876Z,4.03
2018-05-21T22:00:06.453Z,4.70
2018-05-21T22:02:33.017Z,4.17
2018-05-21T22:04:59.605Z,3.90
2018-05-21T22:07:26.174Z,4.07
2018-05-21T22:09:52.789Z,4.53
2018-05-21T22:12:19.344Z,4.30
2018-05-21T22:14:45.937Z,3.80
2018-05-21T22:17:12.505Z,4.00
2018-05-21T22:19:39.075Z,3.97
2018-05-21T22:22:05.653Z,3.90
2018-05-21T22:24:32.221Z,4.23
2018-05-21T22:26:58.814Z,4.23
2018-05-21T22:29:25.369Z,4.17
2018-05-21T22:31:51.933Z,3.80
2018-05-21T22:34:18.513Z,3.50
2018-05-21T22:36:45.084Z,4.30
2018-05-21T22:39:11.650Z,3.87
2018-05-21T22:41:38.225Z,4.17
2018-05-21T22:44:04.797Z,4.13
2018-05-21T22:46:31.373Z,3.90
2018-05-21T22:48:57.942Z,3.87
2018-05-21T22:51:24.586Z,3.80
2018-05-21T22:53:51.150Z,3.73
2018-05-21T22:56:17.722Z,3.73
2018-05-21T22:58:44.299Z,3.87
2018-05-21T23:01:10.892Z,3.90
2018-05-21T23:03:37.470Z,4.10
2018-05-21T23:06:04.049Z,3.80
2018-05-21T23:08:30.609Z,3.60
2018-05-21T23:10:57.173Z,4.13
2018-05-21T23:13:23.761Z,3.73
2018-05-21T23:15:50.333Z,3.90
2018-05-21T23:18:16.909Z,3.60
2018-05-21T23:20:43.485Z,3.70
2018-05-21T23:23:10.051Z,4.07
2018-05-21T23:25:36.654Z,4.07
2018-05-21T23:28:03.222Z,3.97
2018-05-21T23:30:29.789Z,3.70
2018-05-21T23:32:56.365Z,3.57
2018-05-21T23:35:22.937Z,3.70
2018-05-21T23:37:49.503Z,4.27
2018-05-21T23:40:16.064Z,4.20
2018-05-21T23:42:42.647Z,4.20
2018-05-21T23:45:09.215Z,3.90
2018-05-21T23:47:35.902Z,3.60
2018-05-21T23:50:02.486Z,3.80
2018-05-21T23:52:29.045Z,4.00
2018-05-21T23:54:55.630Z,4.00
2018-05-21T23:57:22.217Z,4.60
2018-05-21T23:59:49.155Z,4.23
